Terminal Aerodrome Forecast
Issued by NWS Wichita, KS

Home | Current Version | Previous Version | Graphics & Text | Print | Product List | Glossary On
Versions: 1 2 3 4 5 6 7 8 9 10 11 12 13 14 15 16 17 18 19 20
000
FTUS43 KICT 272320
TAFICT
TAF
KICT 272320Z 2800/2824 17014G20KT P6SM SCT080 BKN120
     FM280500 17014KT P6SM VCTS SCT040CB BKN100
     FM281500 21014KT P6SM VCTS SCT050CB BKN100=

USA.gov is the U.S. government's official web portal to all federal, state and local government web resources and services.